الصفحة الرئيسية
METAR-TAF:

METAR-TAF

مطار :

Whyalla, أستراليا

دائرة عرض: 33-03-32S, خط طول: 137-30-52E, ارتفاع: 12 متر

مراقبة الطقس الحالي

تاريخ ووقت الإصدار 30 دقيقة قبل الساعة 04:00UTC
ريح 7 عقدة من الجنوب/الجنوب الشرقي
درجة الحرارة 20°درجة مئوية
الرطوبة 64%
ضغط 1021 hPa
الرؤية 10 كم أو أكثر
ملبد بالغيوم على ارتفاع 4300 قدم
ملبد بالغيوم على ارتفاع 5000 قدم

METAR: YWHA 060400Z AUTO 15007KT 9999 // OVC043 OVC050 20/13 Q1021

زمن: 14:00 (04:30 UTC)


TAF: مفقودة

أرصاد الطقس والتوقعات من أكثر من 4000 مطار (تقارير الطقس للمطار METAR والتنبؤ بالطقس بالمطارTAF).

المحطات المتاحة هي النقط الصفراء والحمراء على الخريطة.

حرك المؤشر فوق النقطة لمعرفة اسم المحطة.

ثم انقر لمعرفة أرصاد وتوقعات الطقس.

لتغيير الخارطة: اضغط على الأزرار الخضراء مع رمز الصليب الأسود للتكبير. على الزر الأخضر مع شرطة للتصغير، أو على الأسهم الخضراء للخرائط المجاورة.


METAR-TAF: